Time;durP1;ratioP1;P1;durP2;ratioP2;P2;SDS_P1;SDS_P2;PMS_P1;PMS_P2;Temp;Humidity;BMP_temperature;BMP_pressure;BME280_temperature;BME280_humidity;BME280_pressure;Samples;Min_cycle;Max_cycle;Signal;HPM_P1;HPM_P2
2022/01/09 00:01:30;;;;;;;2.05;0.95;;;7.10;1.00;;;;;;5116494;28;20031;-77
2022/01/09 00:03:56;;;;;;;2.50;0.68;;;7.10;99.90;;;;;;5116216;28;20032;-77
2022/01/09 00:06:21;;;;;;;8.10;1.35;;;7.30;99.90;;;;;;5116194;28;20130;-77
2022/01/09 00:08:47;;;;;;;5.28;1.40;;;7.60;99.90;;;;;;5116308;28;20100;-77
2022/01/09 00:11:15;;;;;;;8.15;1.55;;;7.60;99.90;;;;;;5115025;28;20386;-76
2022/01/09 00:13:41;;;;;;;9.02;1.20;;;7.70;76.60;;;;;;5115866;28;20039;-77
2022/01/09 00:16:07;;;;;;;9.18;1.42;;;7.80;25.70;;;;;;5115721;28;20089;-77
2022/01/09 00:18:33;;;;;;;8.50;2.03;;;7.80;64.30;;;;;;5115371;28;20047;-77
2022/01/09 00:21:05;;;;;;;13.18;2.10;;;7.90;44.40;;;;;;5115565;28;20561;-76
2022/01/09 00:23:34;;;;;;;7.18;1.50;;;7.90;50.90;;;;;;5115403;28;20032;-76
2022/01/09 00:26:01;;;;;;;10.48;2.05;;;8.00;16.70;;;;;;5115230;28;20035;-77
2022/01/09 00:28:27;;;;;;;10.88;2.10;;;7.90;38.60;;;;;;5115890;28;20042;-77
2022/01/09 00:30:52;;;;;;;7.07;1.55;;;7.90;90.50;;;;;;5115054;28;20039;-77
2022/01/09 00:33:21;;;;;;;9.50;1.88;;;7.70;99.90;;;;;;5115083;28;20035;-77
2022/01/09 00:35:47;;;;;;;7.03;1.80;;;7.70;98.00;;;;;;5115387;28;20039;-77
2022/01/09 00:38:13;;;;;;;9.93;1.98;;;7.70;99.90;;;;;;5115517;28;20127;-77
2022/01/09 00:40:39;;;;;;;8.45;2.17;;;7.70;78.80;;;;;;5115514;28;20039;-77
2022/01/09 00:43:08;;;;;;;19.42;2.17;;;7.70;95.60;;;;;;5115130;28;20038;-77
2022/01/09 00:45:37;;;;;;;18.63;2.45;;;7.80;44.00;;;;;;5115232;28;20035;-78
2022/01/09 00:48:04;;;;;;;17.13;3.05;;;7.90;43.50;;;;;;5114850;28;20512;-77
2022/01/09 00:50:30;;;;;;;18.13;2.80;;;7.90;56.50;;;;;;5115116;28;20106;-77
2022/01/09 00:52:56;;;;;;;14.45;3.20;;;7.90;65.50;;;;;;5115259;28;20097;-77
2022/01/09 00:55:22;;;;;;;16.60;2.90;;;7.80;60.70;;;;;;5115407;28;20043;-77
2022/01/09 00:57:48;;;;;;;13.20;3.03;;;7.90;42.00;;;;;;5115199;28;20035;-78
2022/01/09 01:00:14;;;;;;;14.65;2.63;;;8.00;45.50;;;;;;5115263;28;20088;-77
2022/01/09 01:02:41;;;;;;;18.77;2.97;;;7.90;71.20;;;;;;5114956;28;20038;-77
2022/01/09 01:05:08;;;;;;;15.00;3.10;;;7.80;48.10;;;;;;5114960;28;20035;-77
2022/01/09 01:07:34;;;;;;;13.88;3.08;;;7.90;58.40;;;;;;5115084;28;20122;-77
2022/01/09 01:10:00;;;;;;;20.00;3.05;;;7.90;26.50;;;;;;5115152;28;20024;-77
2022/01/09 01:12:28;;;;;;;16.38;3.30;;;7.90;26.30;;;;;;5115334;28;20043;-77
2022/01/09 01:14:54;;;;;;;15.77;4.13;;;7.90;50.50;;;;;;5115291;28;20028;-77
2022/01/09 01:17:21;;;;;;;18.92;5.32;;;8.00;19.90;;;;;;5115150;28;20066;-77
2022/01/09 01:19:47;;;;;;;16.58;3.67;;;8.00;19.70;;;;;;5115153;28;20043;-77
2022/01/09 01:22:14;;;;;;;17.58;4.03;;;8.00;23.60;;;;;;5115255;28;20035;-77
2022/01/09 01:24:41;;;;;;;18.73;3.97;;;7.90;25.10;;;;;;5118511;28;20039;-77
2022/01/09 01:27:08;;;;;;;18.75;3.20;;;7.90;18.40;;;;;;5119446;28;20035;-77
2022/01/09 01:29:35;;;;;;;21.77;3.35;;;7.90;15.60;;;;;;5119497;28;20114;-77
2022/01/09 01:32:00;;;;;;;14.52;3.13;;;8.00;13.50;;;;;;5119451;28;20035;-77
2022/01/09 01:34:26;;;;;;;17.25;3.83;;;8.00;13.70;;;;;;5119161;28;20493;-77
2022/01/09 01:36:52;;;;;;;23.33;3.08;;;8.00;1.00;;;;;;5119153;28;20039;-77
2022/01/09 01:39:18;;;;;;;20.58;3.08;;;8.00;1.00;;;;;;5118697;28;20084;-77
2022/01/09 01:41:44;;;;;;;17.25;2.83;;;8.00;1.00;;;;;;5119172;28;20035;-77
2022/01/09 01:44:11;;;;;;;16.40;3.05;;;7.90;1.00;;;;;;5119114;28;20039;-77
2022/01/09 01:46:40;;;;;;;13.32;3.13;;;7.90;1.70;;;;;;5119144;28;20500;-77
2022/01/09 01:49:06;;;;;;;18.83;3.72;;;7.80;9.40;;;;;;5118761;28;20031;-77
2022/01/09 01:51:34;;;;;;;19.13;3.60;;;7.70;9.10;;;;;;5118700;28;20102;-77
2022/01/09 01:54:01;;;;;;;15.02;3.42;;;7.70;1.00;;;;;;5118685;28;20036;-77
2022/01/09 01:56:27;;;;;;;17.08;3.65;;;7.90;1.00;;;;;;5118699;28;20051;-77
2022/01/09 01:58:54;;;;;;;18.35;3.47;;;7.80;8.70;;;;;;5118906;28;20036;-77
2022/01/09 02:01:20;;;;;;;18.95;3.35;;;7.70;3.30;;;;;;5118983;28;20035;-77
2022/01/09 02:03:46;;;;;;;18.92;3.55;;;7.80;1.00;;;;;;5118712;28;20503;-77
2022/01/09 02:06:14;;;;;;;15.00;3.15;;;7.80;1.00;;;;;;5118665;28;20114;-77
2022/01/09 02:08:42;;;;;;;15.65;3.20;;;7.80;1.00;;;;;;5118243;28;20024;-77
2022/01/09 02:11:09;;;;;;;15.52;3.03;;;7.70;1.00;;;;;;5118344;28;20047;-77
2022/01/09 02:13:39;;;;;;;12.20;3.35;;;7.70;1.00;;;;;;5117979;28;20576;-77
2022/01/09 02:16:05;;;;;;;14.90;3.22;;;7.70;1.00;;;;;;5118395;28;20035;-78
2022/01/09 02:18:31;;;;;;;18.83;3.40;;;7.80;1.00;;;;;;5117991;28;20494;-77
2022/01/09 02:20:57;;;;;;;16.85;3.25;;;7.80;1.00;;;;;;5118020;28;20046;-77
2022/01/09 02:23:23;;;;;;;16.15;3.63;;;7.80;1.00;;;;;;5118073;28;20035;-77
2022/01/09 02:25:50;;;;;;;17.98;3.35;;;7.70;1.00;;;;;;5117992;28;20039;-77
2022/01/09 02:28:17;;;;;;;18.27;3.30;;;7.70;1.00;;;;;;5117992;28;20031;-77
2022/01/09 02:30:44;;;;;;;20.95;2.97;;;7.60;1.00;;;;;;5117971;28;20031;-77
2022/01/09 02:33:15;;;;;;;17.50;3.15;;;7.70;1.00;;;;;;5117680;28;20110;-77
2022/01/09 02:35:41;;;;;;;19.48;3.28;;;7.70;1.00;;;;;;5117388;28;20038;-77
2022/01/09 02:38:07;;;;;;;11.73;2.40;;;7.50;1.00;;;;;;5117839;28;20035;-77
2022/01/09 02:40:34;;;;;;;16.75;3.15;;;7.40;15.40;;;;;;5117730;28;20035;-76
2022/01/09 02:43:00;;;;;;;15.75;3.08;;;7.30;14.40;;;;;;5117742;28;20037;-77
2022/01/09 02:45:27;;;;;;;15.57;3.03;;;7.40;8.30;;;;;;5117650;28;20122;-77
2022/01/09 02:47:55;;;;;;;21.17;4.43;;;7.40;9.30;;;;;;5117415;28;20126;-77
2022/01/09 02:52:52;;;;;;;23.10;4.32;;;7.40;1.00;;;;;;5117206;28;20463;-77
2022/01/09 02:55:19;;;;;;;27.50;4.30;;;7.30;10.20;;;;;;5117202;28;20490;-76
2022/01/09 02:57:48;;;;;;;19.90;4.28;;;7.20;21.20;;;;;;5117108;28;20039;-77
2022/01/09 03:00:23;;;;;;;23.80;4.05;;;7.20;12.00;;;;;;5118004;28;20081;-77
2022/01/09 03:02:49;;;;;;;26.50;3.67;;;7.40;1.00;;;;;;5116915;28;20118;-77
2022/01/09 03:05:15;;;;;;;18.88;3.97;;;7.50;1.00;;;;;;5117091;28;20046;-77
2022/01/09 03:07:43;;;;;;;25.75;3.83;;;7.40;2.00;;;;;;5117137;28;20477;-77
2022/01/09 03:10:11;;;;;;;23.15;3.63;;;7.50;1.00;;;;;;5117461;28;20505;-76
2022/01/09 03:12:37;;;;;;;22.00;3.30;;;7.40;1.00;;;;;;5076485;28;20048;-76
2022/01/09 03:15:04;;;;;;;26.23;4.63;;;7.50;1.00;;;;;;5076155;28;20386;-77
2022/01/09 03:17:30;;;;;;;19.98;3.67;;;7.60;1.00;;;;;;5076080;28;20509;-77
2022/01/09 03:19:56;;;;;;;20.35;3.70;;;7.40;1.00;;;;;;5076251;28;20036;-77
2022/01/09 03:22:22;;;;;;;23.95;3.60;;;7.50;1.00;;;;;;5075974;28;20037;-77
2022/01/09 03:24:49;;;;;;;22.05;3.78;;;7.50;1.00;;;;;;5076250;28;20043;-77
2022/01/09 03:27:16;;;;;;;23.27;3.35;;;7.40;1.00;;;;;;5076170;28;20036;-77
2022/01/09 03:29:41;;;;;;;24.40;3.80;;;7.40;1.00;;;;;;5076082;28;20513;-77
2022/01/09 03:32:08;;;;;;;22.17;4.03;;;7.40;1.00;;;;;;5075807;28;20032;-76
2022/01/09 03:34:35;;;;;;;24.40;3.90;;;7.50;1.00;;;;;;5075838;28;20054;-77
2022/01/09 03:37:01;;;;;;;22.70;4.50;;;7.40;1.00;;;;;;5075634;28;20497;-77
2022/01/09 03:39:26;;;;;;;21.33;3.67;;;7.40;1.00;;;;;;5076275;28;20047;-76
2022/01/09 03:41:54;;;;;;;20.70;3.47;;;7.40;1.00;;;;;;5075527;28;20041;-77
2022/01/09 03:44:20;;;;;;;19.65;3.20;;;7.30;1.00;;;;;;5075561;28;20064;-78
2022/01/09 03:46:46;;;;;;;14.98;3.28;;;7.40;1.00;;;;;;5074915;28;20041;-77
2022/01/09 03:49:12;;;;;;;22.27;3.63;;;7.60;1.00;;;;;;5075389;28;20082;-77
2022/01/09 03:51:39;;;;;;;16.35;3.05;;;7.50;1.00;;;;;;5075376;28;20024;-77
2022/01/09 03:54:06;;;;;;;20.20;3.88;;;7.40;1.00;;;;;;5075354;28;20040;-77
2022/01/09 03:56:33;;;;;;;19.42;3.75;;;7.30;1.00;;;;;;5075690;28;20127;-76
2022/01/09 03:58:59;;;;;;;19.25;3.53;;;7.10;5.90;;;;;;5075501;28;20048;-77
2022/01/09 04:01:25;;;;;;;19.35;3.15;;;7.00;2.80;;;;;;5075890;28;20032;-77
2022/01/09 04:03:51;;;;;;;26.63;3.30;;;7.00;5.70;;;;;;5075013;28;20526;-76
2022/01/09 04:06:17;;;;;;;19.38;3.15;;;6.70;99.90;;;;;;5075544;28;20032;-77
2022/01/09 04:08:43;;;;;;;14.23;2.58;;;6.80;51.80;;;;;;5074904;28;20028;-77
2022/01/09 04:11:10;;;;;;;16.58;2.92;;;6.80;55.50;;;;;;5091144;28;20054;-77
2022/01/09 04:13:38;;;;;;;20.60;3.53;;;6.90;24.60;;;;;;5115553;28;20028;-77
2022/01/09 04:16:04;;;;;;;21.67;3.72;;;7.10;1.00;;;;;;5115500;28;20071;-76
2022/01/09 04:18:31;;;;;;;23.33;3.28;;;6.90;27.00;;;;;;5115527;28;20031;-77
2022/01/09 04:20:58;;;;;;;19.23;3.17;;;6.80;11.40;;;;;;5115648;28;20058;-76
2022/01/09 04:23:24;;;;;;;15.38;3.05;;;6.90;4.40;;;;;;5116062;28;20023;-77
2022/01/09 04:25:51;;;;;;;24.58;3.97;;;7.00;1.00;;;;;;5115425;28;20035;-76
2022/01/09 04:28:17;;;;;;;22.45;3.33;;;6.90;2.00;;;;;;5115462;28;20528;-77
2022/01/09 04:30:44;;;;;;;23.42;4.30;;;7.10;1.00;;;;;;5115101;28;20576;-77
2022/01/09 04:33:10;;;;;;;25.38;3.95;;;7.10;1.00;;;;;;5115435;28;20031;-78
2022/01/09 04:35:37;;;;;;;23.20;4.57;;;7.00;1.00;;;;;;5115117;28;20118;-78
2022/01/09 04:38:03;;;;;;;22.27;3.45;;;7.10;1.00;;;;;;5115608;28;20031;-77
2022/01/09 04:40:29;;;;;;;19.52;3.97;;;7.10;1.00;;;;;;5115544;28;20181;-77
2022/01/09 04:42:58;;;;;;;23.30;3.95;;;7.10;6.20;;;;;;5115130;28;20035;-77
2022/01/09 04:45:26;;;;;;;24.90;4.68;;;7.00;1.00;;;;;;5115341;28;20031;-77
2022/01/09 04:47:54;;;;;;;21.88;4.72;;;7.00;1.10;;;;;;5115171;28;20032;-77
2022/01/09 04:50:24;;;;;;;23.65;4.32;;;6.90;16.60;;;;;;5115086;28;20035;-77
2022/01/09 04:52:54;;;;;;;30.67;5.10;;;6.80;9.90;;;;;;5115345;28;20035;-77
2022/01/09 04:55:21;;;;;;;18.95;3.55;;;6.90;1.00;;;;;;5115473;28;20042;-77
2022/01/09 04:57:47;;;;;;;23.77;4.45;;;7.00;1.00;;;;;;5115085;28;20501;-78
2022/01/09 05:00:13;;;;;;;25.65;4.50;;;7.10;1.00;;;;;;5115722;28;20031;-77
2022/01/09 05:02:39;;;;;;;23.80;3.80;;;7.00;1.00;;;;;;5115145;28;20034;-77
2022/01/09 05:05:06;;;;;;;22.67;4.43;;;7.10;1.00;;;;;;5114870;28;20032;-77
2022/01/09 05:07:32;;;;;;;29.85;4.13;;;7.20;1.00;;;;;;5115127;28;20039;-77
2022/01/09 05:09:58;;;;;;;25.92;4.28;;;7.10;1.00;;;;;;5115102;28;20131;-77
2022/01/09 05:12:24;;;;;;;26.00;4.63;;;7.20;1.00;;;;;;5115465;28;20071;-77
2022/01/09 05:14:50;;;;;;;21.25;4.00;;;7.20;1.00;;;;;;5115179;28;20512;-76
2022/01/09 05:17:16;;;;;;;20.63;3.80;;;7.10;1.00;;;;;;5114930;28;20097;-77
2022/01/09 05:19:42;;;;;;;24.92;4.63;;;7.10;1.00;;;;;;5114984;28;20043;-77
2022/01/09 05:22:08;;;;;;;26.45;4.40;;;7.10;1.00;;;;;;5115139;28;20031;-76
2022/01/09 05:24:35;;;;;;;27.05;4.32;;;7.20;1.00;;;;;;5115003;28;20080;-76
2022/01/09 05:27:02;;;;;;;20.83;4.38;;;7.20;1.00;;;;;;5114739;28;20036;-77
2022/01/09 05:29:28;;;;;;;31.75;5.03;;;7.10;56.90;;;;;;5115222;28;20034;-76
2022/01/09 05:31:53;;;;;;;21.60;4.43;;;7.00;29.60;;;;;;5115063;28;20035;-76
2022/01/09 05:34:19;;;;;;;26.48;4.85;;;6.80;35.10;;;;;;5115073;28;20373;-77
2022/01/09 05:36:45;;;;;;;26.00;4.40;;;6.80;11.20;;;;;;5114765;28;20039;-77
2022/01/09 05:39:12;;;;;;;31.52;4.53;;;6.80;21.80;;;;;;5115325;28;20466;-76
2022/01/09 05:41:39;;;;;;;24.25;4.40;;;6.90;1.00;;;;;;5115104;28;20038;-77
2022/01/09 05:44:05;;;;;;;21.77;4.38;;;7.00;14.90;;;;;;5115245;28;20032;-77
2022/01/09 05:46:31;;;;;;;25.73;4.50;;;7.00;5.20;;;;;;5115006;28;20046;-77
2022/01/09 05:48:57;;;;;;;25.23;4.88;;;7.10;1.00;;;;;;5114918;28;20044;-77
2022/01/09 05:51:22;;;;;;;31.13;6.07;;;7.10;12.20;;;;;;5114990;28;20038;-77
2022/01/09 05:53:48;;;;;;;33.45;4.88;;;6.90;18.40;;;;;;5114682;28;20039;-78
2022/01/09 05:56:14;;;;;;;27.88;5.65;;;6.90;13.10;;;;;;5114553;28;20040;-76
2022/01/09 05:58:40;;;;;;;37.13;5.93;;;6.80;24.50;;;;;;5114886;28;20047;-76
2022/01/09 06:01:07;;;;;;;24.83;4.47;;;6.70;20.90;;;;;;5114554;28;20038;-76
2022/01/09 06:03:33;;;;;;;20.58;4.45;;;6.80;2.40;;;;;;5114718;28;20027;-77
2022/01/09 06:06:00;;;;;;;26.65;4.80;;;6.80;7.20;;;;;;5115293;28;20047;-78
2022/01/09 06:08:26;;;;;;;27.42;4.88;;;6.80;5.30;;;;;;5115105;28;20084;-77
2022/01/09 06:10:52;;;;;;;25.25;5.25;;;6.80;1.00;;;;;;5118481;28;20051;-77
2022/01/09 06:13:18;;;;;;;23.33;4.68;;;6.70;5.20;;;;;;5118299;28;20050;-77
2022/01/09 06:15:44;;;;;;;20.30;3.80;;;6.70;8.60;;;;;;5099828;28;20063;-77
2022/01/09 06:18:12;;;;;;;33.72;6.18;;;6.70;1.00;;;;;;5117604;28;20043;-77
2022/01/09 06:20:38;;;;;;;24.40;4.45;;;6.70;1.00;;;;;;5118501;28;20501;-77
2022/01/09 06:23:04;;;;;;;30.40;4.88;;;6.70;1.00;;;;;;5118116;28;20035;-77
2022/01/09 06:25:30;;;;;;;25.77;4.72;;;6.80;1.00;;;;;;5117700;28;20131;-77
2022/01/09 06:27:56;;;;;;;28.38;4.68;;;6.70;1.00;;;;;;5117726;28;20105;-78
2022/01/09 06:30:22;;;;;;;24.50;5.15;;;6.70;1.00;;;;;;5118390;28;20038;-77
2022/01/09 06:32:47;;;;;;;24.25;5.70;;;6.70;1.00;;;;;;5117776;28;20032;-78
2022/01/09 06:35:14;;;;;;;23.70;5.88;;;6.70;1.00;;;;;;5117813;28;20044;-77
2022/01/09 06:37:40;;;;;;;23.13;4.07;;;6.80;1.00;;;;;;5099467;28;20396;-77
2022/01/09 06:40:06;;;;;;;30.45;4.65;;;6.70;1.00;;;;;;5118141;28;20035;-77
2022/01/09 06:42:32;;;;;;;26.98;3.70;;;6.70;1.00;;;;;;5117696;28;20118;-76
2022/01/09 06:44:58;;;;;;;22.77;4.57;;;6.70;1.00;;;;;;5118224;28;20074;-77
2022/01/09 06:47:24;;;;;;;27.02;4.72;;;6.70;1.00;;;;;;5117612;28;20046;-77
2022/01/09 06:49:50;;;;;;;27.10;5.22;;;6.80;1.00;;;;;;5117489;28;20031;-77
2022/01/09 06:52:16;;;;;;;21.92;4.82;;;6.90;1.00;;;;;;5117513;28;20092;-77
2022/01/09 06:54:42;;;;;;;25.48;4.47;;;6.80;1.00;;;;;;5117210;28;20528;-77
2022/01/09 06:57:08;;;;;;;28.60;4.63;;;6.80;1.00;;;;;;5117065;28;20070;-77
2022/01/09 06:59:33;;;;;;;30.83;5.10;;;6.90;1.00;;;;;;5117549;28;20043;-77
2022/01/09 07:02:00;;;;;;;21.88;4.80;;;6.90;1.00;;;;;;5116951;28;20482;-77
2022/01/09 07:04:25;;;;;;;28.50;4.22;;;6.90;1.00;;;;;;5117070;28;20030;-76
2022/01/09 07:06:51;;;;;;;34.40;4.70;;;7.00;1.00;;;;;;5116974;28;20478;-77
2022/01/09 07:09:17;;;;;;;26.10;4.47;;;6.80;1.00;;;;;;5117463;28;20038;-78
2022/01/09 07:11:43;;;;;;;22.05;4.10;;;6.90;1.00;;;;;;5116496;28;20051;-77
2022/01/09 07:14:09;;;;;;;34.22;5.15;;;6.90;1.00;;;;;;5116844;28;20067;-77
2022/01/09 07:16:34;;;;;;;29.13;4.72;;;6.80;1.00;;;;;;5116956;28;20040;-77
2022/01/09 07:19:00;;;;;;;26.58;4.70;;;6.80;1.00;;;;;;5116830;28;20031;-77
2022/01/09 07:21:26;;;;;;;24.15;4.57;;;6.70;1.00;;;;;;5116977;28;20031;-76
2022/01/09 07:23:52;;;;;;;26.70;5.70;;;6.80;1.00;;;;;;5118907;27;20038;-76
2022/01/09 07:26:18;;;;;;;34.78;5.95;;;6.70;1.00;;;;;;5125553;27;20078;-76
2022/01/09 07:28:43;;;;;;;27.30;5.63;;;6.70;1.00;;;;;;5116128;28;20482;-77
2022/01/09 07:31:09;;;;;;;30.00;6.00;;;6.80;1.00;;;;;;5116402;28;20033;-76
2022/01/09 07:33:35;;;;;;;25.55;4.28;;;6.90;1.00;;;;;;5115997;28;20027;-76
2022/01/09 07:36:01;;;;;;;34.78;5.57;;;7.00;1.00;;;;;;5115852;28;20036;-76
2022/01/09 07:38:27;;;;;;;28.52;5.28;;;7.00;1.00;;;;;;5115900;28;20065;-77
2022/01/09 07:40:53;;;;;;;21.23;4.32;;;7.10;1.00;;;;;;5116244;28;20089;-77
2022/01/09 07:43:19;;;;;;;29.17;5.65;;;7.10;1.00;;;;;;5116103;28;20031;-77
2022/01/09 07:45:44;;;;;;;32.75;5.50;;;7.00;1.00;;;;;;5115578;28;20092;-77
2022/01/09 07:48:10;;;;;;;27.77;5.35;;;7.00;1.00;;;;;;5115832;28;20035;-77
2022/01/09 07:50:36;;;;;;;28.75;5.53;;;7.10;1.00;;;;;;5115802;28;20114;-76
2022/01/09 07:53:02;;;;;;;34.88;5.55;;;7.20;1.00;;;;;;5115682;28;20114;-77
2022/01/09 07:55:28;;;;;;;38.00;5.47;;;7.30;1.00;;;;;;5115560;28;20513;-76
2022/01/09 07:57:54;;;;;;;24.98;5.80;;;7.30;1.00;;;;;;5115725;28;20035;-77
2022/01/09 08:00:21;;;;;;;32.63;5.88;;;7.40;1.00;;;;;;5115701;28;20036;-77
2022/01/09 08:02:47;;;;;;;38.38;6.57;;;7.50;1.00;;;;;;5114962;28;20028;-76
2022/01/09 08:05:15;;;;;;;26.75;5.13;;;7.50;1.00;;;;;;5115679;28;20031;-77
2022/01/09 08:07:42;;;;;;;30.15;4.65;;;7.50;1.00;;;;;;5114951;28;20106;-77
2022/01/09 08:10:08;;;;;;;28.52;5.80;;;7.50;1.00;;;;;;5122862;27;20062;-77
2022/01/09 08:12:34;;;;;;;30.45;5.78;;;7.60;1.00;;;;;;5122256;27;20043;-76
2022/01/09 08:15:00;;;;;;;29.92;4.68;;;7.70;1.00;;;;;;5115765;27;20031;-77
2022/01/09 08:17:26;;;;;;;29.73;5.50;;;7.70;1.00;;;;;;5115199;28;20085;-77
2022/01/09 08:19:53;;;;;;;30.70;5.30;;;7.90;1.00;;;;;;5115138;28;20056;-77
2022/01/09 08:22:19;;;;;;;21.85;4.82;;;8.00;1.00;;;;;;5115033;28;20359;-76
2022/01/09 08:24:45;;;;;;;22.60;5.10;;;7.90;1.00;;;;;;5114545;28;20067;-77
2022/01/09 08:27:11;;;;;;;30.92;5.15;;;8.00;1.00;;;;;;5113965;28;20487;-76
2022/01/09 08:29:37;;;;;;;25.63;4.85;;;8.00;1.00;;;;;;5113794;28;20043;-77
2022/01/09 08:32:05;;;;;;;20.95;4.82;;;8.00;1.00;;;;;;5113099;28;20070;-76
2022/01/09 08:34:31;;;;;;;28.92;5.53;;;8.00;1.00;;;;;;5113995;28;20073;-77
2022/01/09 08:36:56;;;;;;;31.27;5.90;;;7.90;1.00;;;;;;5113590;28;20494;-77
2022/01/09 08:39:22;;;;;;;30.77;5.30;;;7.80;1.00;;;;;;5113594;28;20035;-77
2022/01/09 08:41:48;;;;;;;27.48;6.10;;;7.80;1.00;;;;;;5113330;28;20038;-77
2022/01/09 08:44:14;;;;;;;24.23;5.07;;;7.80;1.00;;;;;;5121698;27;20043;-76
2022/01/09 08:46:40;;;;;;;27.63;4.85;;;7.90;1.00;;;;;;5130319;27;20479;-78
2022/01/09 08:49:06;;;;;;;27.80;5.50;;;8.00;1.00;;;;;;5126911;27;20486;-77
2022/01/09 08:51:32;;;;;;;27.92;5.47;;;7.90;1.00;;;;;;5114902;28;20081;-77
2022/01/09 08:53:59;;;;;;;24.10;5.00;;;8.00;1.00;;;;;;5115271;28;20092;-77
2022/01/09 08:56:27;;;;;;;31.60;5.75;;;8.00;1.00;;;;;;5115162;28;20118;-77
2022/01/09 08:58:54;;;;;;;23.35;5.57;;;7.90;1.00;;;;;;5114853;28;20394;-77
2022/01/09 09:01:20;;;;;;;28.45;5.07;;;8.00;1.00;;;;;;5114740;28;20466;-78
2022/01/09 09:03:45;;;;;;;25.67;4.47;;;8.00;1.00;;;;;;5114700;28;20114;-77
2022/01/09 09:06:13;;;;;;;27.52;4.70;;;7.90;1.00;;;;;;5128910;27;20054;-76
2022/01/09 09:08:40;;;;;;;30.67;5.05;;;7.70;1.00;;;;;;5154725;27;20031;-76
2022/01/09 09:11:08;;;;;;;33.17;5.88;;;7.70;1.00;;;;;;5154595;27;20081;-76
2022/01/09 09:13:35;;;;;;;28.75;5.38;;;7.60;1.00;;;;;;5141573;27;20072;-72
2022/01/09 09:16:02;;;;;;;28.70;5.40;;;7.60;1.00;;;;;;5123143;28;20046;-72
2022/01/09 09:18:28;;;;;;;24.88;5.05;;;7.50;10.70;;;;;;5124005;28;20043;-72
2022/01/09 09:20:54;;;;;;;31.27;4.85;;;7.20;99.90;;;;;;5122217;28;20071;-72
2022/01/09 09:23:20;;;;;;;23.75;5.50;;;7.10;42.10;;;;;;5122769;28;20085;-71
2022/01/09 09:25:46;;;;;;;26.50;5.20;;;7.10;47.90;;;;;;5122525;28;20475;-71
2022/01/09 09:28:13;;;;;;;22.02;4.90;;;7.20;92.60;;;;;;5120670;28;20343;-73
2022/01/09 09:30:39;;;;;;;26.33;5.03;;;7.20;41.70;;;;;;5123089;28;20117;-73
2022/01/09 09:33:05;;;;;;;29.27;5.80;;;7.20;9.90;;;;;;5123586;28;20123;-73
2022/01/09 09:35:35;;;;;;;22.77;5.05;;;7.00;99.90;;;;;;5122062;28;20115;-73
2022/01/09 09:38:01;;;;;;;41.58;19.13;;;7.00;99.90;;;;;;5122997;28;20034;-74
2022/01/09 09:40:27;;;;;;;28.67;5.20;;;6.90;99.90;;;;;;5123756;28;20435;-74
2022/01/09 09:42:53;;;;;;;26.58;5.97;;;7.00;99.90;;;;;;5121490;28;20028;-75
2022/01/09 09:45:20;;;;;;;42.85;16.02;;;7.10;99.90;;;;;;5126036;27;20081;-73
2022/01/09 09:47:46;;;;;;;31.00;7.05;;;7.10;99.90;;;;;;5127650;27;20035;-73
2022/01/09 09:50:14;;;;;;;29.90;6.60;;;7.10;99.90;;;;;;5125958;27;20032;-73
2022/01/09 09:52:44;;;;;;;39.13;6.55;;;7.10;99.90;;;;;;5127299;27;20124;-74
2022/01/09 09:55:11;;;;;;;29.13;6.97;;;7.20;99.90;;;;;;5127711;27;20490;-75
2022/01/09 09:57:37;;;;;;;27.38;5.15;;;7.30;99.90;;;;;;5126557;27;20042;-75
2022/01/09 10:00:16;;;;;;;27.15;7.85;;;7.40;99.90;;;;;;5126627;27;20039;-75
2022/01/09 10:02:50;;;;;;;16.08;3.88;;;7.40;99.90;;;;;;5126971;27;20122;-75
2022/01/09 10:05:22;;;;;;;15.27;3.65;;;7.30;99.90;;;;;;5127482;27;20035;-75
2022/01/09 10:07:48;;;;;;;17.10;4.68;;;7.40;73.90;;;;;;5126159;27;20043;-74
2022/01/09 10:10:16;;;;;;;19.70;3.90;;;7.30;77.10;;;;;;5133462;27;20058;-76
2022/01/09 10:12:44;;;;;;;8.20;2.60;;;7.20;97.00;;;;;;5136435;27;20074;-75
2022/01/09 10:15:19;;;;;;;16.70;3.75;;;7.20;90.40;;;;;;5136600;27;20449;-75
2022/01/09 10:17:49;;;;;;;13.57;3.33;;;7.10;99.90;;;;;;5137162;27;20104;-74
2022/01/09 10:20:18;;;;;;;23.65;10.88;;;7.10;99.90;;;;;;5136397;27;20512;-75
2022/01/09 10:22:55;;;;;;;12.30;3.17;;;7.20;84.50;;;;;;5137137;27;20035;-75
2022/01/09 10:25:22;;;;;;;8.23;3.22;;;7.20;54.20;;;;;;5125906;27;20040;-75
2022/01/09 10:27:51;;;;;;;8.80;2.13;;;7.30;89.40;;;;;;5115977;28;20038;-75
2022/01/09 10:30:22;;;;;;;10.45;2.63;;;7.40;79.30;;;;;;5116330;28;20044;-75
2022/01/09 10:32:54;;;;;;;8.60;2.70;;;7.40;45.50;;;;;;5115908;28;20039;-75
2022/01/09 10:35:20;;;;;;;11.15;2.53;;;7.30;30.40;;;;;;5116369;28;20040;-74
2022/01/09 10:38:02;;;;;;;11.95;3.08;;;7.30;48.50;;;;;;5116053;28;20043;-75
2022/01/09 10:40:32;;;;;;;8.90;1.70;;;7.40;36.40;;;;;;5115624;28;20513;-75
2022/01/09 10:43:11;;;;;;;19.75;9.82;;;7.60;35.00;;;;;;5116564;28;20035;-75
2022/01/09 10:45:42;;;;;;;6.63;2.03;;;7.60;27.80;;;;;;5117277;28;20063;-75
2022/01/09 10:48:13;;;;;;;20.40;12.70;;;7.70;15.60;;;;;;5116289;28;20445;-75
2022/01/09 10:50:42;;;;;;;29.70;14.00;;;7.80;15.50;;;;;;5116253;28;20035;-75
2022/01/09 10:53:17;;;;;;;45.88;24.70;;;7.90;11.90;;;;;;5116479;28;20509;-76
2022/01/09 10:55:44;;;;;;;10.98;4.50;;;7.90;5.60;;;;;;5119594;27;20092;-75
2022/01/09 10:58:22;;;;;;;14.10;5.65;;;7.90;43.00;;;;;;5127888;27;20481;-75
2022/01/09 11:01:24;;;;;;;51.80;28.95;;;7.80;42.00;;;;;;5136745;27;20043;-76
2022/01/09 11:03:56;;;;;;;12.50;5.45;;;7.70;68.30;;;;;;5136432;27;20177;-75
2022/01/09 11:06:23;;;;;;;12.88;3.80;;;7.60;95.40;;;;;;5136789;27;20041;-75
2022/01/09 11:08:50;;;;;;;13.95;7.50;;;7.60;99.90;;;;;;5105420;27;20043;-75
2022/01/09 11:11:26;;;;;;;8.65;3.95;;;7.70;99.90;;;;;;5120870;27;20052;-74
2022/01/09 11:13:54;;;;;;;6.78;1.90;;;7.70;99.90;;;;;;5122844;27;20509;-74
2022/01/09 11:16:33;;;;;;;7.22;2.28;;;7.80;99.90;;;;;;5118229;27;20092;-74
2022/01/09 11:19:23;;;;;;;5.05;2.50;;;7.80;99.90;;;;;;5121134;27;20051;-75
2022/01/09 11:21:49;;;;;;;13.88;9.18;;;7.80;69.50;;;;;;5118159;27;20534;-75
2022/01/09 11:25:02;;;;;;;6.40;3.42;;;7.80;93.30;;;;;;5113722;27;20024;-75
2022/01/09 11:27:51;;;;;;;7.75;3.33;;;8.00;95.80;;;;;;5123634;27;20088;-75
2022/01/09 11:31:09;;;;;;;5.97;3.55;;;8.10;97.00;;;;;;5113719;28;20084;-74
2022/01/09 11:34:23;;;;;;;7.65;5.07;;;8.20;99.90;;;;;;5103919;27;20035;-75
2022/01/09 11:37:15;;;;;;;6.00;3.58;;;8.40;82.30;;;;;;5111792;27;20481;-75
2022/01/09 11:39:43;;;;;;;2.58;1.73;;;8.40;28.40;;;;;;5133154;27;20031;-75
2022/01/09 11:42:15;;;;;;;1.50;1.00;;;8.20;22.70;;;;;;5116456;27;20035;-75
2022/01/09 11:44:56;;;;;;;2.78;1.42;;;8.40;25.50;;;;;;5114142;28;20139;-75
2022/01/09 11:47:22;;;;;;;;;;;8.40;19.20;;;;;;5115197;28;20066;-74
2022/01/09 11:49:55;;;;;;;10.60;6.20;;;8.50;24.90;;;;;;5114023;28;19914;-74
2022/01/09 11:52:26;;;;;;;4.57;3.13;;;8.50;37.50;;;;;;5114929;28;20058;-73
2022/01/09 11:54:59;;;;;;;14.65;7.72;;;8.50;46.70;;;;;;5114908;28;20110;-74
2022/01/09 11:57:47;;;;;;;7.38;4.65;;;8.30;10.90;;;;;;5130022;27;20035;-75
2022/01/09 12:00:34;;;;;;;11.43;8.13;;;8.40;69.90;;;;;;5134253;27;20035;-75
2022/01/09 12:03:21;;;;;;;7.57;3.83;;;8.30;43.70;;;;;;5133662;27;20516;-74
2022/01/09 12:06:38;;;;;;;6.18;2.92;;;8.20;61.00;;;;;;5134665;27;20035;-75
2022/01/09 12:09:05;;;;;;;4.40;2.28;;;8.30;99.90;;;;;;5091478;27;20061;-74
2022/01/09 12:12:06;;;;;;;7.55;1.75;;;8.20;83.30;;;;;;5133321;27;20069;-74
2022/01/09 12:14:41;;;;;;;;;;;8.10;61.50;;;;;;5114108;27;20039;-74
2022/01/09 12:17:28;;;;;;;5.68;2.58;;;8.10;49.30;;;;;;5118175;27;19907;-74
2022/01/09 12:20:03;;;;;;;4.78;2.08;;;8.00;38.50;;;;;;5134332;27;20049;-74
2022/01/09 12:23:00;;;;;;;10.15;9.20;;;7.90;43.70;;;;;;5135082;27;20031;-74
2022/01/09 12:25:31;;;;;;;8.38;5.80;;;7.80;80.70;;;;;;5135432;27;20077;-74
2022/01/09 12:28:18;;;;;;;6.32;3.13;;;7.70;40.80;;;;;;5135412;27;20433;-74
2022/01/09 12:30:58;;;;;;;5.72;4.15;;;7.70;83.70;;;;;;5134835;27;20055;-74
2022/01/09 12:33:28;;;;;;;6.13;2.47;;;7.70;91.60;;;;;;5134908;27;20077;-74
2022/01/09 12:36:04;;;;;;;3.13;1.65;;;7.60;97.60;;;;;;5134876;27;20042;-74
2022/01/09 12:38:32;;;;;;;5.35;2.47;;;7.50;99.90;;;;;;5134161;27;20037;-74
2022/01/09 12:41:05;;;;;;;5.88;3.60;;;7.50;99.90;;;;;;5135065;27;20043;-74
2022/01/09 12:43:33;;;;;;;7.88;4.75;;;7.50;99.90;;;;;;5134560;27;20118;-74
2022/01/09 12:45:58;;;;;;;2.17;1.60;;;7.60;80.50;;;;;;5132939;27;20137;-74
2022/01/09 12:48:29;;;;;;;3.80;2.15;;;7.40;75.70;;;;;;5134458;27;20570;-74
2022/01/09 12:51:05;;;;;;;4.57;3.30;;;7.50;99.90;;;;;;5134797;27;20039;-74
2022/01/09 12:53:40;;;;;;;8.80;8.00;;;7.30;79.80;;;;;;5134440;27;20038;-74
2022/01/09 12:56:08;;;;;;;64.65;52.15;;;7.20;99.90;;;;;;5131664;27;20481;-75
2022/01/09 12:58:41;;;;;;;4.43;2.72;;;7.30;90.70;;;;;;5118187;27;20034;-75
2022/01/09 13:01:12;;;;;;;4.75;1.92;;;7.20;99.90;;;;;;5113360;28;20053;-74
2022/01/09 13:03:40;;;;;;;9.57;6.85;;;7.30;99.90;;;;;;5113757;28;20110;-75
2022/01/09 13:06:10;;;;;;;4.53;1.88;;;7.20;92.50;;;;;;5130857;27;20054;-74